Terminal Aerodrome Forecast
Issued by NWS Wilmington, OH

Current Version | Previous Version | Text Only | Print | Product List | Glossary On
Versions: 1 2 3 4 5 6 7 8 9 10 11 12 13 14 15 16 17 18 19 20 21 22 23 24 25 26 27 28 29 30 31 32
000 FTUS41 KILN 281720 TAFDAY TAF KDAY 281720Z 2818/2918 21011G20KT P6SM VCSH SCT035 FM290000 20007KT P6SM VCSH FEW035 FEW250 FM291200 21007G15KT P6SM VCSH BKN027 FM291600 23011G19KT P6SM VCTS BKN020CB=

USA.gov is the U.S. government's official web portal to all federal, state and local government web resources and services.